Time;durP1;ratioP1;P1;durP2;ratioP2;P2;SDS_P1;SDS_P2;PMS_P1;PMS_P2;Temp;Humidity;BMP_temperature;BMP_pressure;BME280_temperature;BME280_humidity;BME280_pressure;Samples;Min_cycle;Max_cycle;Signal;HPM_P1;HPM_P2
2022/04/03 00:01:49;;;;;;;4.18;1.67;;;;;;;;;;5048105;28;20050;-53
2022/04/03 00:04:15;;;;;;;2.63;1.38;;;;;;;;;;5047687;28;20117;-51
2022/04/03 00:06:41;;;;;;;4.57;1.77;;;;;;;;;;5048898;28;20086;-54
2022/04/03 00:09:07;;;;;;;3.65;1.40;;;;;;;;;;5050149;28;20040;-54
2022/04/03 00:11:33;;;;;;;4.15;1.50;;;;;;;;;;5049122;28;20530;-53
2022/04/03 00:13:59;;;;;;;5.53;1.45;;;;;;;;;;5049268;28;20029;-53
2022/04/03 00:16:26;;;;;;;4.28;1.88;;;;;;;;;;5049693;28;20570;-55
2022/04/03 00:18:52;;;;;;;4.65;1.65;;;;;;;;;;5047348;28;20514;-52
2022/04/03 00:21:19;;;;;;;4.05;2.15;;;;;;;;;;5049154;28;20032;-51
2022/04/03 00:23:45;;;;;;;4.10;1.50;;;;;;;;;;5047284;28;20112;-52
2022/04/03 00:26:11;;;;;;;3.60;1.42;;;;;;;;;;5048992;28;20068;-48
2022/04/03 00:28:37;;;;;;;3.53;1.45;;;;;;;;;;5048218;28;20080;-51
2022/04/03 00:31:03;;;;;;;4.15;1.63;;;;;;;;;;5048651;28;20547;-53
2022/04/03 00:33:29;;;;;;;3.25;1.30;;;;;;;;;;5048029;28;20391;-53
2022/04/03 00:35:56;;;;;;;4.35;1.38;;;;;;;;;;5049127;28;20100;-49
2022/04/03 00:38:22;;;;;;;4.53;1.50;;;;;;;;;;5049078;28;20083;-52
2022/04/03 00:40:48;;;;;;;2.83;1.40;;;;;;;;;;5044659;28;20079;-53
2022/04/03 00:43:15;;;;;;;4.50;1.70;;;;;;;;;;5048866;28;20044;-52
2022/04/03 00:45:45;;;;;;;2.35;1.00;;;;;;;;;;5048717;28;20025;-52
2022/04/03 00:48:11;;;;;;;4.80;1.65;;;;;;;;;;5047150;28;20052;-50
2022/04/03 00:50:38;;;;;;;3.28;1.40;;;;;;;;;;5048099;28;20024;-50
2022/04/03 00:53:04;;;;;;;3.55;1.23;;;;;;;;;;5048495;28;20112;-49
2022/04/03 00:55:30;;;;;;;3.80;1.70;;;;;;;;;;5048084;28;20103;-50
2022/04/03 00:57:58;;;;;;;2.88;1.20;;;;;;;;;;5048250;28;20029;-50
2022/04/03 01:00:25;;;;;;;6.32;1.70;;;;;;;;;;5047844;28;20027;-50
2022/04/03 01:02:51;;;;;;;3.08;1.27;;;;;;;;;;5044288;28;20387;-51
2022/04/03 01:05:17;;;;;;;3.38;1.27;;;;;;;;;;5033001;28;20412;-54
2022/04/03 01:07:44;;;;;;;2.78;1.20;;;;;;;;;;5048633;28;20096;-49
2022/04/03 01:10:10;;;;;;;3.35;1.35;;;;;;;;;;5048509;28;20079;-48
2022/04/03 01:12:46;;;;;;;3.13;1.15;;;;;;;;;;5048264;28;20043;-54
2022/04/03 01:15:15;;;;;;;2.40;1.20;;;;;;;;;;5048625;28;20060;-49
2022/04/03 01:17:42;;;;;;;3.35;1.10;;;;;;;;;;5042790;28;20033;-52
2022/04/03 01:20:09;;;;;;;3.53;1.40;;;;;;;;;;5026920;28;20116;-48
2022/04/03 01:22:35;;;;;;;3.60;1.15;;;;;;;;;;5047452;28;20021;-51
2022/04/03 01:25:01;;;;;;;2.92;1.30;;;;;;;;;;5042957;28;20025;-47
2022/04/03 01:27:27;;;;;;;4.13;1.65;;;;;;;;;;5044574;28;20051;-50
2022/04/03 01:29:54;;;;;;;2.75;1.30;;;;;;;;;;5047683;28;20044;-49
2022/04/03 01:32:20;;;;;;;3.30;1.50;;;;;;;;;;5046788;28;20539;-48
2022/04/03 01:34:47;;;;;;;3.35;1.25;;;;;;;;;;5047755;28;20029;-50
2022/04/03 01:37:13;;;;;;;3.40;1.75;;;;;;;;;;5047575;28;20505;-48
2022/04/03 01:39:39;;;;;;;3.28;1.30;;;;;;;;;;5041655;28;20026;-48
2022/04/03 01:42:05;;;;;;;2.50;1.33;;;;;;;;;;5040943;28;20033;-51
2022/04/03 01:44:32;;;;;;;2.95;1.40;;;;;;;;;;5042517;28;20071;-53
2022/04/03 01:46:58;;;;;;;4.03;1.58;;;;;;;;;;5047835;28;20033;-55
2022/04/03 01:49:24;;;;;;;2.80;1.20;;;;;;;;;;5046506;28;20479;-50
2022/04/03 01:51:50;;;;;;;5.57;1.30;;;;;;;;;;5047676;28;20391;-48
2022/04/03 01:54:17;;;;;;;3.40;1.30;;;;;;;;;;5047102;28;20017;-53
2022/04/03 01:56:44;;;;;;;3.75;1.10;;;;;;;;;;5047424;28;20387;-49
2022/04/03 01:59:10;;;;;;;2.28;1.17;;;;;;;;;;5048008;28;20029;-51
2022/04/03 02:01:36;;;;;;;3.10;1.42;;;;;;;;;;5048281;28;20021;-51
2022/04/03 02:04:03;;;;;;;4.25;1.60;;;;;;;;;;5047162;28;20037;-51
2022/04/03 02:06:30;;;;;;;2.85;1.10;;;;;;;;;;5047920;28;20041;-54
2022/04/03 02:08:56;;;;;;;3.40;1.45;;;;;;;;;;5045575;28;20122;-53
2022/04/03 02:11:22;;;;;;;2.95;1.33;;;;;;;;;;5047188;28;20064;-52
2022/04/03 02:13:48;;;;;;;2.40;1.17;;;;;;;;;;5047258;28;20064;-54
2022/04/03 02:16:15;;;;;;;3.40;1.48;;;;;;;;;;5048121;28;20028;-55
2022/04/03 02:18:41;;;;;;;3.03;1.30;;;;;;;;;;5047809;28;20021;-52
2022/04/03 02:21:07;;;;;;;2.30;1.10;;;;;;;;;;5047510;28;20025;-54
2022/04/03 02:23:33;;;;;;;3.28;1.45;;;;;;;;;;5041079;28;20637;-53
2022/04/03 02:25:59;;;;;;;2.63;1.27;;;;;;;;;;5047643;28;20029;-53
2022/04/03 02:28:25;;;;;;;2.67;1.20;;;;;;;;;;5046956;28;20053;-49
2022/04/03 02:30:51;;;;;;;6.10;1.60;;;;;;;;;;5049300;28;20039;-55
2022/04/03 02:33:18;;;;;;;2.78;1.17;;;;;;;;;;5051633;28;20387;-55
2022/04/03 02:35:44;;;;;;;2.63;1.25;;;;;;;;;;5040085;28;20029;-55
2022/04/03 02:38:10;;;;;;;3.42;1.33;;;;;;;;;;5038669;28;20033;-54
2022/04/03 02:40:36;;;;;;;3.10;1.25;;;;;;;;;;5051509;28;20032;-54
2022/04/03 02:43:02;;;;;;;6.07;1.88;;;;;;;;;;5051273;28;20395;-54
2022/04/03 02:45:28;;;;;;;4.13;1.55;;;;;;;;;;5050691;28;20040;-53
2022/04/03 02:47:55;;;;;;;5.15;1.67;;;;;;;;;;5051700;28;20056;-54
2022/04/03 02:50:23;;;;;;;2.75;1.20;;;;;;;;;;5050744;28;20490;-53
2022/04/03 02:52:50;;;;;;;3.03;1.23;;;;;;;;;;5049012;28;20479;-53
2022/04/03 02:55:20;;;;;;;2.92;1.40;;;;;;;;;;5050410;28;20152;-50
2022/04/03 02:57:46;;;;;;;3.05;1.25;;;;;;;;;;5050739;28;20108;-52
2022/04/03 03:00:14;;;;;;;2.83;1.33;;;;;;;;;;5050766;28;20029;-53
2022/04/03 03:02:41;;;;;;;1.90;1.00;;;;;;;;;;5051320;28;20090;-54
2022/04/03 03:05:07;;;;;;;3.22;1.48;;;;;;;;;;5050359;28;20487;-55
2022/04/03 03:07:37;;;;;;;4.55;1.95;;;;;;;;;;5039845;28;20036;-54
2022/04/03 03:10:04;;;;;;;2.63;1.40;;;;;;;;;;5041035;28;20028;-53
2022/04/03 03:12:30;;;;;;;3.45;1.52;;;;;;;;;;5050822;28;20502;-52
2022/04/03 03:14:56;;;;;;;7.00;1.48;;;;;;;;;;5050584;28;20033;-51
2022/04/03 03:17:22;;;;;;;5.10;1.60;;;;;;;;;;5050279;28;20036;-54
2022/04/03 03:19:48;;;;;;;2.70;1.33;;;;;;;;;;5050262;28;20103;-54
2022/04/03 03:22:15;;;;;;;4.50;1.75;;;;;;;;;;5048536;28;20132;-52
2022/04/03 03:24:41;;;;;;;3.33;1.50;;;;;;;;;;5050656;28;20067;-55
2022/04/03 03:27:07;;;;;;;3.53;1.30;;;;;;;;;;5050992;28;20029;-53
2022/04/03 03:29:33;;;;;;;3.40;1.52;;;;;;;;;;5049881;28;20040;-53
2022/04/03 03:31:59;;;;;;;2.63;1.20;;;;;;;;;;5050567;28;20112;-54
2022/04/03 03:34:26;;;;;;;3.40;1.30;;;;;;;;;;5050454;28;20040;-54
2022/04/03 03:36:52;;;;;;;3.58;1.40;;;;;;;;;;5048880;28;20025;-51
2022/04/03 03:39:18;;;;;;;2.90;1.25;;;;;;;;;;5049718;28;20104;-54
2022/04/03 03:41:44;;;;;;;3.03;1.23;;;;;;;;;;5048751;28;20399;-55
2022/04/03 03:44:10;;;;;;;3.15;1.30;;;;;;;;;;5049699;28;20054;-54
2022/04/03 03:46:37;;;;;;;8.45;1.60;;;;;;;;;;5049565;28;20076;-52
2022/04/03 03:49:03;;;;;;;4.10;1.67;;;;;;;;;;5050315;28;20124;-51
2022/04/03 03:51:29;;;;;;;2.45;1.13;;;;;;;;;;5048585;28;20442;-54
2022/04/03 03:53:55;;;;;;;3.65;1.30;;;;;;;;;;5049705;28;20394;-52
2022/04/03 03:56:21;;;;;;;2.45;1.30;;;;;;;;;;5049207;28;20021;-54
2022/04/03 03:58:47;;;;;;;2.53;1.25;;;;;;;;;;5049948;28;20121;-54
2022/04/03 04:01:13;;;;;;;2.83;1.35;;;;;;;;;;5049839;28;20021;-52
2022/04/03 04:03:39;;;;;;;2.92;1.20;;;;;;;;;;5048436;28;20191;-53
2022/04/03 04:06:05;;;;;;;4.13;1.40;;;;;;;;;;5049798;28;20395;-55
2022/04/03 04:08:31;;;;;;;3.40;1.55;;;;;;;;;;5049970;28;20865;-53
2022/04/03 04:10:58;;;;;;;3.75;1.70;;;;;;;;;;5050151;28;20764;-50
2022/04/03 04:13:24;;;;;;;3.28;0.93;;;;;;;;;;5050028;28;20019;-50
2022/04/03 04:15:50;;;;;;;3.83;1.58;;;;;;;;;;5049885;28;20116;-52
2022/04/03 04:18:16;;;;;;;3.92;1.73;;;;;;;;;;5044858;28;20112;-51
2022/04/03 04:20:42;;;;;;;6.38;1.50;;;;;;;;;;5049794;28;20033;-47
2022/04/03 04:23:09;;;;;;;2.70;1.48;;;;;;;;;;5049554;28;20052;-54
2022/04/03 04:25:35;;;;;;;3.80;1.23;;;;;;;;;;5049271;28;20044;-53
2022/04/03 04:28:02;;;;;;;2.75;1.20;;;;;;;;;;5048717;28;20495;-54
2022/04/03 04:30:29;;;;;;;4.38;1.85;;;;;;;;;;5049350;28;20032;-54
2022/04/03 04:32:55;;;;;;;3.90;1.55;;;;;;;;;;5048249;28;20119;-54
2022/04/03 04:35:21;;;;;;;2.55;1.20;;;;;;;;;;5049174;28;20021;-54
2022/04/03 04:37:47;;;;;;;4.28;1.48;;;;;;;;;;5049452;28;20544;-51
2022/04/03 04:40:13;;;;;;;4.82;2.55;;;;;;;;;;5049381;28;20029;-47
2022/04/03 04:42:39;;;;;;;4.18;1.52;;;;;;;;;;5049090;28;20094;-51
2022/04/03 04:45:09;;;;;;;3.30;1.52;;;;;;;;;;5040256;28;20033;-49
2022/04/03 04:47:36;;;;;;;3.97;1.50;;;;;;;;;;5033188;28;20130;-49
2022/04/03 04:50:03;;;;;;;5.63;2.03;;;;;;;;;;5048670;28;20020;-50
2022/04/03 04:52:29;;;;;;;4.93;1.80;;;;;;;;;;5047985;28;20084;-49
2022/04/03 04:54:55;;;;;;;3.25;1.50;;;;;;;;;;5048258;28;20108;-49
2022/04/03 04:57:21;;;;;;;10.75;2.25;;;;;;;;;;5047870;28;20025;-48
2022/04/03 04:59:47;;;;;;;17.50;3.08;;;;;;;;;;5048666;28;20476;-48
2022/04/03 05:02:13;;;;;;;8.52;3.10;;;;;;;;;;5048871;28;20119;-49
2022/04/03 05:04:39;;;;;;;20.35;3.45;;;;;;;;;;5047770;28;20033;-51
2022/04/03 05:07:06;;;;;;;8.48;2.97;;;;;;;;;;5048532;28;20074;-52
2022/04/03 05:09:32;;;;;;;7.93;2.85;;;;;;;;;;5048442;28;20025;-48
2022/04/03 05:11:59;;;;;;;6.18;2.60;;;;;;;;;;5049015;28;20017;-50
2022/04/03 05:14:25;;;;;;;7.80;2.53;;;;;;;;;;5046032;28;20041;-47
2022/04/03 05:16:51;;;;;;;9.07;2.60;;;;;;;;;;5048603;28;20033;-49
2022/04/03 05:19:17;;;;;;;4.97;2.05;;;;;;;;;;5048390;28;20085;-48
2022/04/03 05:21:43;;;;;;;4.65;1.90;;;;;;;;;;5048636;28;20053;-53
2022/04/03 05:24:09;;;;;;;3.80;1.80;;;;;;;;;;5048241;28;20037;-50
2022/04/03 05:26:36;;;;;;;5.05;1.80;;;;;;;;;;5048230;28;20035;-53
2022/04/03 05:29:02;;;;;;;5.03;1.63;;;;;;;;;;5047994;28;20060;-50
2022/04/03 05:31:28;;;;;;;5.05;1.65;;;;;;;;;;5046864;28;20120;-52
2022/04/03 05:33:55;;;;;;;5.25;2.55;;;;;;;;;;5048013;28;20104;-47
2022/04/03 05:36:21;;;;;;;3.40;1.40;;;;;;;;;;5048327;28;20681;-50
2022/04/03 05:38:48;;;;;;;3.67;1.70;;;;;;;;;;5048406;28;20437;-52
2022/04/03 05:41:14;;;;;;;3.97;1.50;;;;;;;;;;5048496;28;20033;-50
2022/04/03 05:43:40;;;;;;;5.70;1.50;;;;;;;;;;5046357;28;20025;-52
2022/04/03 05:46:07;;;;;;;6.10;1.45;;;;;;;;;;5045603;28;20025;-52
2022/04/03 05:48:33;;;;;;;7.53;1.80;;;;;;;;;;5048215;28;20052;-54
2022/04/03 05:50:59;;;;;;;5.20;1.30;;;;;;;;;;5048085;28;20040;-53
2022/04/03 05:53:25;;;;;;;6.88;2.28;;;;;;;;;;5048257;28;20467;-53
2022/04/03 05:55:51;;;;;;;6.75;1.25;;;;;;;;;;5047982;28;20024;-53
2022/04/03 05:58:17;;;;;;;2.60;1.25;;;;;;;;;;5048267;28;20025;-51
2022/04/03 06:00:43;;;;;;;5.63;1.38;;;;;;;;;;5039514;28;20475;-53
2022/04/03 06:03:09;;;;;;;4.82;1.35;;;;;;;;;;5039872;28;20086;-52
2022/04/03 06:05:35;;;;;;;2.58;1.20;;;;;;;;;;5041481;28;20025;-53
2022/04/03 06:08:02;;;;;;;3.28;1.17;;;;;;;;;;5046117;28;20048;-53
2022/04/03 06:10:29;;;;;;;5.68;1.48;;;;;;;;;;5045661;28;20408;-51
2022/04/03 06:12:56;;;;;;;3.28;1.35;;;;;;;;;;5045047;28;20037;-54
2022/04/03 06:15:23;;;;;;;6.65;1.90;;;;;;;;;;5043386;28;20040;-52
2022/04/03 06:17:50;;;;;;;4.22;1.40;;;;;;;;;;5046906;28;20536;-53
2022/04/03 06:20:17;;;;;;;6.70;1.80;;;;;;;;;;5038710;28;20106;-50
2022/04/03 06:22:44;;;;;;;3.67;1.17;;;;;;;;;;5044930;28;20159;-52
2022/04/03 06:25:10;;;;;;;3.58;1.20;;;;;;;;;;5040978;28;20038;-52
2022/04/03 06:27:36;;;;;;;4.25;1.40;;;;;;;;;;5047119;28;20044;-52
2022/04/03 06:30:03;;;;;;;4.05;1.20;;;;;;;;;;5041541;28;20061;-53
2022/04/03 06:32:29;;;;;;;5.28;1.38;;;;;;;;;;5045695;28;20051;-51
2022/04/03 06:34:55;;;;;;;4.15;1.23;;;;;;;;;;5045775;28;20040;-54
2022/04/03 06:37:21;;;;;;;3.17;1.13;;;;;;;;;;5047499;28;20021;-52
2022/04/03 06:39:48;;;;;;;5.82;1.20;;;;;;;;;;5044909;28;20025;-51
2022/04/03 06:42:14;;;;;;;3.67;1.00;;;;;;;;;;5046434;28;20037;-48
2022/04/03 06:44:40;;;;;;;2.78;1.25;;;;;;;;;;5045890;28;20044;-49
2022/04/03 06:47:07;;;;;;;5.88;1.13;;;;;;;;;;5044614;28;20106;-52
2022/04/03 06:49:33;;;;;;;5.57;1.10;;;;;;;;;;5045403;28;20104;-50
2022/04/03 06:52:00;;;;;;;3.45;1.20;;;;;;;;;;5042912;28;20183;-48
2022/04/03 06:54:26;;;;;;;3.13;1.15;;;;;;;;;;5042844;28;20060;-50
2022/04/03 06:56:55;;;;;;;2.80;1.30;;;;;;;;;;5042113;28;20119;-49
2022/04/03 06:59:23;;;;;;;3.05;1.20;;;;;;;;;;5041298;28;20430;-50
2022/04/03 07:01:49;;;;;;;3.53;1.10;;;;;;;;;;5043605;28;20021;-49
2022/04/03 07:04:15;;;;;;;4.35;1.20;;;;;;;;;;5043216;28;20543;-50
2022/04/03 07:06:41;;;;;;;3.85;1.20;;;;;;;;;;5041247;28;20028;-52
2022/04/03 07:09:07;;;;;;;2.45;1.13;;;;;;;;;;5043559;28;20180;-53
2022/04/03 07:11:39;;;;;;;5.78;1.30;;;;;;;;;;5044776;28;20463;-48
2022/04/03 07:14:06;;;;;;;4.30;1.25;;;;;;;;;;5039227;28;20088;-51
2022/04/03 07:16:32;;;;;;;2.58;0.93;;;;;;;;;;5033498;28;20483;-52
2022/04/03 07:18:58;;;;;;;2.35;0.90;;;;;;;;;;5040989;28;20056;-54
2022/04/03 07:21:24;;;;;;;4.22;1.20;;;;;;;;;;5041033;28;20021;-50
2022/04/03 07:23:50;;;;;;;2.38;1.10;;;;;;;;;;5039524;28;20450;-49
2022/04/03 07:26:16;;;;;;;2.60;0.90;;;;;;;;;;5039363;28;20091;-49
2022/04/03 07:28:42;;;;;;;3.78;1.05;;;;;;;;;;5036026;28;20048;-47
2022/04/03 07:31:08;;;;;;;5.45;1.40;;;;;;;;;;5037334;28;20030;-52
2022/04/03 07:33:35;;;;;;;2.47;1.33;;;;;;;;;;5049784;28;20036;-48
2022/04/03 07:36:01;;;;;;;9.32;1.45;;;;;;;;;;5046016;28;20051;-49
2022/04/03 07:38:27;;;;;;;6.53;1.50;;;;;;;;;;5041052;28;20033;-52
2022/04/03 07:40:54;;;;;;;5.82;1.40;;;;;;;;;;5041147;28;20376;-49
2022/04/03 07:43:20;;;;;;;6.28;1.25;;;;;;;;;;5039903;28;20506;-51
2022/04/03 07:45:46;;;;;;;7.57;1.13;;;;;;;;;;5041301;28;20679;-52
2022/04/03 07:48:12;;;;;;;7.82;1.30;;;;;;;;;;5040540;28;20041;-52
2022/04/03 07:50:39;;;;;;;6.32;1.27;;;;;;;;;;5045992;28;20467;-53
2022/04/03 07:53:06;;;;;;;7.25;1.83;;;;;;;;;;5040975;28;20032;-54
2022/04/03 07:55:32;;;;;;;7.60;1.73;;;;;;;;;;5050038;28;20037;-49
2022/04/03 07:57:58;;;;;;;6.70;1.20;;;;;;;;;;5050658;28;20033;-49
2022/04/03 08:00:24;;;;;;;11.35;1.50;;;;;;;;;;5048305;28;20108;-52
2022/04/03 08:02:50;;;;;;;7.15;1.42;;;;;;;;;;5048667;28;20025;-49
2022/04/03 08:05:16;;;;;;;6.30;1.27;;;;;;;;;;5046284;28;20060;-49
2022/04/03 08:07:44;;;;;;;10.63;1.73;;;;;;;;;;5046396;28;20102;-47
2022/04/03 08:10:10;;;;;;;5.20;1.48;;;;;;;;;;5047818;28;20033;-49
2022/04/03 08:12:37;;;;;;;11.10;1.60;;;;;;;;;;5043495;28;20347;-48
2022/04/03 08:15:04;;;;;;;10.95;2.35;;;;;;;;;;5041269;28;20143;-51
2022/04/03 08:17:30;;;;;;;6.35;1.27;;;;;;;;;;5038827;28;20044;-48
2022/04/03 08:19:56;;;;;;;8.32;1.67;;;;;;;;;;5042797;28;20024;-51
2022/04/03 08:22:23;;;;;;;10.75;1.83;;;;;;;;;;5040328;28;20084;-54
2022/04/03 08:24:49;;;;;;;11.15;2.60;;;;;;;;;;5040608;28;20048;-55
2022/04/03 08:27:16;;;;;;;15.15;1.63;;;;;;;;;;5043392;28;20044;-52
2022/04/03 08:29:42;;;;;;;6.20;1.90;;;;;;;;;;5035224;28;20132;-51
2022/04/03 08:32:08;;;;;;;7.65;1.30;;;;;;;;;;5045841;28;20032;-49
2022/04/03 08:34:34;;;;;;;8.68;1.80;;;;;;;;;;5049061;28;20025;-52
2022/04/03 08:37:00;;;;;;;10.23;1.75;;;;;;;;;;5048793;28;20052;-51
2022/04/03 08:39:27;;;;;;;12.82;1.55;;;;;;;;;;5034779;28;20030;-51
2022/04/03 08:41:55;;;;;;;13.07;1.65;;;;;;;;;;5045800;28;20025;-52
2022/04/03 08:44:22;;;;;;;8.25;1.42;;;;;;;;;;5041636;28;20029;-53
2022/04/03 08:46:48;;;;;;;9.23;2.15;;;;;;;;;;5043257;28;20544;-54
2022/04/03 08:49:19;;;;;;;10.55;2.20;;;;;;;;;;5049038;28;20483;-50
2022/04/03 08:51:46;;;;;;;8.63;1.80;;;;;;;;;;5048435;28;20159;-54
2022/04/03 08:54:13;;;;;;;4.30;1.15;;;;;;;;;;5044901;28;20895;-50
2022/04/03 08:56:39;;;;;;;16.45;1.60;;;;;;;;;;5038599;28;20052;-57
2022/04/03 08:59:06;;;;;;;7.63;1.20;;;;;;;;;;5037219;28;20112;-52
2022/04/03 09:01:32;;;;;;;5.20;1.33;;;;;;;;;;5040500;28;20527;-48
2022/04/03 09:03:58;;;;;;;12.38;1.48;;;;;;;;;;5048713;28;20108;-49
2022/04/03 09:06:24;;;;;;;9.93;1.58;;;;;;;;;;5044287;28;20681;-50
2022/04/03 09:08:50;;;;;;;5.82;1.50;;;;;;;;;;5042313;28;20048;-52
2022/04/03 09:11:18;;;;;;;6.20;1.77;;;;;;;;;;5040749;28;20116;-48
2022/04/03 09:13:44;;;;;;;7.28;1.42;;;;;;;;;;5039805;28;20063;-46
2022/04/03 09:16:11;;;;;;;8.93;1.85;;;;;;;;;;5046708;28;20037;-50
2022/04/03 09:18:53;;;;;;;7.20;1.40;;;;;;;;;;5047787;28;20021;-51
2022/04/03 09:21:27;;;;;;;7.70;1.38;;;;;;;;;;5049000;28;20578;-53
2022/04/03 09:24:01;;;;;;;6.70;1.50;;;;;;;;;;5049019;28;20025;-50
2022/04/03 09:26:28;;;;;;;10.32;1.75;;;;;;;;;;5033354;28;20038;-48
2022/04/03 09:29:16;;;;;;;9.32;1.85;;;;;;;;;;5043360;28;20111;-53
2022/04/03 09:31:45;;;;;;;11.85;1.30;;;;;;;;;;5032190;28;20040;-52
2022/04/03 09:34:18;;;;;;;5.82;1.23;;;;;;;;;;5046305;28;20067;-51
2022/04/03 09:36:54;;;;;;;7.22;1.20;;;;;;;;;;5047759;28;20063;-51
2022/04/03 09:39:24;;;;;;;7.18;1.10;;;;;;;;;;5039360;28;20090;-51
2022/04/03 09:42:00;;;;;;;6.72;1.30;;;;;;;;;;5027161;28;20029;-53
2022/04/03 09:44:27;;;;;;;6.95;1.55;;;;;;;;;;5044767;28;20115;-49
2022/04/03 09:47:12;;;;;;;10.85;1.40;;;;;;;;;;5028133;28;20549;-48
2022/04/03 09:49:39;;;;;;;4.70;1.42;;;;;;;;;;5044916;28;20035;-51
2022/04/03 09:52:05;;;;;;;11.07;1.30;;;;;;;;;;5037075;28;20036;-51
2022/04/03 09:54:31;;;;;;;9.15;1.00;;;;;;;;;;5047601;28;20052;-48
2022/04/03 09:57:18;;;;;;;8.35;2.10;;;;;;;;;;5041232;28;20064;-47
2022/04/03 09:59:54;;;;;;;7.07;1.13;;;;;;;;;;5044867;28;20120;-50
2022/04/03 10:02:21;;;;;;;21.02;1.55;;;;;;;;;;5040780;28;20052;-47
2022/04/03 10:04:47;;;;;;;9.30;2.65;;;;;;;;;;5040254;28;20045;-49
2022/04/03 10:07:14;;;;;;;23.60;2.25;;;;;;;;;;5046665;28;20032;-51
2022/04/03 10:09:47;;;;;;;17.15;1.85;;;;;;;;;;5033174;28;20036;-47
2022/04/03 10:12:21;;;;;;;23.23;1.67;;;;;;;;;;5038141;28;20037;-49
2022/04/03 10:14:49;;;;;;;8.25;1.40;;;;;;;;;;5042491;28;20029;-51
2022/04/03 10:17:16;;;;;;;19.30;2.70;;;;;;;;;;5045995;28;20441;-49
2022/04/03 10:19:42;;;;;;;9.75;1.10;;;;;;;;;;5045616;28;20017;-51
2022/04/03 10:22:13;;;;;;;16.58;2.60;;;;;;;;;;5045412;28;20112;-47
2022/04/03 10:24:41;;;;;;;8.70;1.20;;;;;;;;;;5043893;28;20781;-48
2022/04/03 10:27:24;;;;;;;9.70;1.33;;;;;;;;;;5045721;28;20028;-51
2022/04/03 10:29:50;;;;;;;22.08;1.73;;;;;;;;;;5041357;28;20136;-48
2022/04/03 10:32:23;;;;;;;11.65;1.42;;;;;;;;;;5045582;28;21459;-50
2022/04/03 10:34:54;;;;;;;9.38;1.52;;;;;;;;;;5045254;28;20052;-47
2022/04/03 10:37:20;;;;;;;;;;;;;;;;;;5045051;28;20029;-49
2022/04/03 10:39:46;;;;;;;11.48;1.73;;;;;;;;;;5045114;28;19951;-48
2022/04/03 10:42:25;;;;;;;14.15;1.20;;;;;;;;;;5045869;28;20124;-52
2022/04/03 10:45:10;;;;;;;15.55;2.10;;;;;;;;;;5037512;28;20987;-51
2022/04/03 10:47:36;;;;;;;19.27;2.13;;;;;;;;;;5045578;28;20120;-52
2022/04/03 10:50:04;;;;;;;20.70;3.25;;;;;;;;;;5045302;28;20021;-46
2022/04/03 10:52:40;;;;;;;27.10;2.67;;;;;;;;;;5043666;28;20029;-48
2022/04/03 10:55:23;;;;;;;28.80;3.25;;;;;;;;;;5041053;28;20036;-46
2022/04/03 10:57:54;;;;;;;19.83;2.25;;;;;;;;;;5049052;28;20041;-46
2022/04/03 11:00:20;;;;;;;21.80;2.17;;;;;;;;;;5049425;28;20526;-50
2022/04/03 11:02:53;;;;;;;18.30;1.77;;;;;;;;;;5048035;28;20052;-45
2022/04/03 11:05:22;;;;;;;16.58;2.15;;;;;;;;;;5049895;28;20025;-48
2022/04/03 11:07:49;;;;;;;17.50;2.65;;;;;;;;;;5038692;28;20688;-48
2022/04/03 11:10:16;;;;;;;18.50;2.50;;;;;;;;;;5050994;28;20029;-48
2022/04/03 11:12:54;;;;;;;20.40;2.63;;;;;;;;;;5049683;28;20028;-45
2022/04/03 11:15:20;;;;;;;26.98;4.00;;;;;;;;;;5048965;28;20029;-48
2022/04/03 11:17:48;;;;;;;25.77;2.65;;;;;;;;;;5048863;28;20120;-46
2022/04/03 11:20:38;;;;;;;22.52;2.35;;;;;;;;;;5050689;28;20029;-46
2022/04/03 11:23:04;;;;;;;20.13;3.53;;;;;;;;;;5036386;28;20442;-47
2022/04/03 11:25:30;;;;;;;16.92;2.10;;;;;;;;;;5050600;28;20060;-47
2022/04/03 11:27:56;;;;;;;20.92;3.47;;;;;;;;;;5050606;28;20104;-49
2022/04/03 11:30:22;;;;;;;19.08;2.45;;;;;;;;;;5050446;28;20614;-51
2022/04/03 11:32:49;;;;;;;24.15;3.17;;;;;;;;;;5048309;28;20041;-46
2022/04/03 11:35:15;;;;;;;15.98;2.28;;;;;;;;;;5050721;28;20116;-49
2022/04/03 11:37:45;;;;;;;12.20;1.83;;;;;;;;;;5050126;28;20040;-48
2022/04/03 11:40:15;;;;;;;14.77;2.60;;;;;;;;;;5030345;28;20029;-46
2022/04/03 11:42:41;;;;;;;36.03;2.70;;;;;;;;;;5044473;28;20032;-50
2022/04/03 11:45:07;;;;;;;34.38;3.30;;;;;;;;;;5049186;28;20525;-50
2022/04/03 11:47:34;;;;;;;29.52;2.85;;;;;;;;;;5039138;28;20040;-50
2022/04/03 11:50:06;;;;;;;49.03;6.45;;;;;;;;;;5042641;28;20028;-47
2022/04/03 11:52:35;;;;;;;122.35;52.28;;;;;;;;;;5042419;28;20387;-51
2022/04/03 11:55:01;;;;;;;191.93;78.82;;;;;;;;;;5037822;28;20045;-46
2022/04/03 11:57:27;;;;;;;138.10;56.45;;;;;;;;;;5042458;28;20517;-48
2022/04/03 11:59:56;;;;;;;125.03;47.85;;;;;;;;;;5039121;28;20026;-48
2022/04/03 12:02:22;;;;;;;108.65;41.63;;;;;;;;;;5040017;28;20452;-49
2022/04/03 12:04:48;;;;;;;105.85;40.05;;;;;;;;;;5040760;28;20045;-52
2022/04/03 12:07:14;;;;;;;91.70;35.33;;;;;;;;;;5041357;28;20444;-49
2022/04/03 12:09:46;;;;;;;95.50;35.47;;;;;;;;;;5039629;28;20120;-52
2022/04/03 12:12:12;;;;;;;101.28;34.80;;;;;;;;;;5039773;28;20136;-48
2022/04/03 12:14:44;;;;;;;86.32;31.60;;;;;;;;;;5043098;28;20021;-47
2022/04/03 12:17:15;;;;;;;95.38;31.63;;;;;;;;;;5040544;28;20094;-50
2022/04/03 12:19:44;;;;;;;88.00;32.13;;;;;;;;;;5043060;28;20036;-49
2022/04/03 12:22:12;;;;;;;95.83;31.83;;;;;;;;;;5037701;28;20032;-47
2022/04/03 12:24:39;;;;;;;83.93;32.17;;;;;;;;;;5043146;28;20487;-47
2022/04/03 12:27:14;;;;;;;105.65;30.15;;;;;;;;;;5038611;28;20032;-51
2022/04/03 12:29:48;;;;;;;83.97;30.27;;;;;;;;;;5041178;28;20068;-53
2022/04/03 12:32:15;;;;;;;80.18;29.08;;;;;;;;;;5037312;28;20032;-48
2022/04/03 12:34:42;;;;;;;88.65;29.10;;;;;;;;;;5043732;28;20128;-53
2022/04/03 12:37:09;;;;;;;81.60;28.23;;;;;;;;;;5039962;28;20104;-51
2022/04/03 12:39:38;;;;;;;79.82;26.88;;;;;;;;;;5045469;28;20028;-48
2022/04/03 12:42:13;;;;;;;66.13;26.05;;;;;;;;;;5040173;28;20033;-51
2022/04/03 12:44:50;;;;;;;73.25;25.33;;;;;;;;;;5040701;28;20600;-49
2022/04/03 12:47:20;;;;;;;66.93;25.65;;;;;;;;;;5037432;28;20045;-49
2022/04/03 12:49:46;;;;;;;;;;;;;;;;;;5040515;28;20469;-49
2022/04/03 12:52:18;;;;;;;69.65;23.50;;;;;;;;;;5042025;28;19909;-52
2022/04/03 12:54:45;;;;;;;80.35;21.10;;;;;;;;;;5047730;28;20013;-47
2022/04/03 13:00:07;;;;;;;64.60;18.00;;;;;;;;;;5045815;28;20146;-50
2022/04/03 13:02:39;;;;;;;63.42;19.70;;;;;;;;;;5047663;28;20108;-48
2022/04/03 13:05:12;;;;;;;57.90;17.35;;;;;;;;;;5048870;28;20378;-49
2022/04/03 13:07:38;;;;;;;56.08;16.10;;;;;;;;;;5048652;28;20551;-47
2022/04/03 13:10:04;;;;;;;67.05;16.63;;;;;;;;;;5048734;28;20146;-51
2022/04/03 13:12:30;;;;;;;69.25;17.27;;;;;;;;;;5048203;28;20116;-51
2022/04/03 13:14:59;;;;;;;53.42;16.55;;;;;;;;;;5048317;28;20104;-51
2022/04/03 13:17:26;;;;;;;55.85;15.07;;;;;;;;;;5044465;28;20037;-50
2022/04/03 13:19:53;;;;;;;48.58;13.90;;;;;;;;;;5048640;28;20032;-46
2022/04/03 13:22:19;;;;;;;42.33;13.07;;;;;;;;;;5048967;28;20025;-51
2022/04/03 13:24:46;;;;;;;39.58;13.50;;;;;;;;;;5048422;28;20175;-49
2022/04/03 13:27:12;;;;;;;44.38;13.82;;;;;;;;;;5048729;28;20119;-45
2022/04/03 13:29:38;;;;;;;54.28;14.98;;;;;;;;;;5048113;28;20057;-48
2022/04/03 13:32:05;;;;;;;50.90;13.23;;;;;;;;;;5045146;28;20025;-50
2022/04/03 13:34:31;;;;;;;43.60;11.23;;;;;;;;;;5048751;28;20037;-48
2022/04/03 13:36:57;;;;;;;54.65;13.75;;;;;;;;;;5048050;28;20484;-45
2022/04/03 13:39:24;;;;;;;54.53;12.25;;;;;;;;;;5048292;28;20037;-52
2022/04/03 13:41:52;;;;;;;45.60;11.85;;;;;;;;;;5047954;28;20511;-53
2022/04/03 13:44:20;;;;;;;55.20;12.73;;;;;;;;;;5047879;28;20395;-52
2022/04/03 13:46:46;;;;;;;40.53;10.52;;;;;;;;;;5046475;28;20426;-51
2022/04/03 13:49:13;;;;;;;44.83;11.23;;;;;;;;;;5048389;28;20017;-47
2022/04/03 13:51:40;;;;;;;41.00;12.90;;;;;;;;;;5047053;28;20441;-51
2022/04/03 13:54:06;;;;;;;37.30;15.38;;;;;;;;;;5045498;28;20106;-48
2022/04/03 13:56:32;;;;;;;35.55;11.43;;;;;;;;;;5046435;28;20113;-49
2022/04/03 13:59:00;;;;;;;42.28;12.25;;;;;;;;;;5046638;28;20037;-48
2022/04/03 14:01:27;;;;;;;39.78;11.35;;;;;;;;;;5046397;28;20079;-50
2022/04/03 14:03:53;;;;;;;34.45;9.73;;;;;;;;;;5041420;28;20035;-51
2022/04/03 14:06:22;;;;;;;39.17;9.93;;;;;;;;;;5032997;28;20028;-51
2022/04/03 14:08:48;;;;;;;29.45;8.43;;;;;;;;;;5048011;28;20025;-49
2022/04/03 14:11:14;;;;;;;38.65;9.52;;;;;;;;;;5048052;28;20448;-49
2022/04/03 14:13:40;;;;;;;25.25;8.18;;;;;;;;;;5048196;28;20035;-50
2022/04/03 14:16:08;;;;;;;29.58;7.97;;;;;;;;;;5048241;28;20110;-50
2022/04/03 14:18:34;;;;;;;44.50;8.77;;;;;;;;;;5045507;28;20523;-54
2022/04/03 14:21:01;;;;;;;32.42;8.52;;;;;;;;;;5038488;28;20048;-50
2022/04/03 14:23:34;;;;;;;31.05;5.85;;;;;;;;;;5045322;28;20800;-53
2022/04/03 14:26:04;;;;;;;24.30;7.32;;;;;;;;;;5046934;28;20056;-50
2022/04/03 14:28:33;;;;;;;27.70;6.05;;;;;;;;;;5051717;28;20179;-54
2022/04/03 14:31:00;;;;;;;34.77;7.87;;;;;;;;;;5051808;28;20053;-53
2022/04/03 14:33:26;;;;;;;24.23;5.93;;;;;;;;;;5052271;28;20267;-49
2022/04/03 14:35:52;;;;;;;25.90;6.05;;;;;;;;;;5051904;28;20032;-50
2022/04/03 14:38:18;;;;;;;19.10;5.85;;;;;;;;;;5052194;28;20033;-50
2022/04/03 14:40:46;;;;;;;35.47;5.43;;;;;;;;;;5044579;28;20040;-49